createdAt,value
2023-03-26T00:02:23.788Z,97236.01
2023-03-26T00:04:53.370Z,97243.25
2023-03-26T00:07:22.778Z,97242.02
2023-03-26T00:09:50.787Z,97238.00
2023-03-26T00:12:20.121Z,97234.93
2023-03-26T00:14:52.849Z,97228.17
2023-03-26T00:17:21.275Z,97227.92
2023-03-26T00:19:50.302Z,97226.54
2023-03-26T00:22:18.155Z,97223.71
2023-03-26T00:24:49.313Z,97227.40
2023-03-26T00:27:20.693Z,97225.27
2023-03-26T00:29:49.566Z,97224.46
2023-03-26T00:32:17.432Z,97229.33
2023-03-26T00:34:46.251Z,97227.98
2023-03-26T00:37:15.209Z,97227.94
2023-03-26T00:39:49.342Z,97221.86
2023-03-26T00:42:17.542Z,97227.77
2023-03-26T00:44:45.650Z,97227.64
2023-03-26T00:47:13.949Z,97227.23
2023-03-26T00:49:42.772Z,97230.59
2023-03-26T00:52:10.850Z,97228.61
2023-03-26T00:54:38.938Z,97231.73
2023-03-26T00:57:20.224Z,97231.16
2023-03-26T00:59:55.607Z,97234.78
2023-03-26T01:02:25.244Z,97241.48
2023-03-26T01:04:57.149Z,97243.25
2023-03-26T01:07:29.095Z,97239.29
2023-03-26T01:09:58.652Z,97236.14
2023-03-26T01:12:28.106Z,97235.25
2023-03-26T01:14:57.221Z,97232.42
2023-03-26T01:17:34.420Z,97232.56
2023-03-26T01:20:15.129Z,97223.45
2023-03-26T01:22:46.537Z,97228.23
2023-03-26T01:25:14.535Z,97220.01
2023-03-26T01:27:44.831Z,97221.66
2023-03-26T01:30:25.217Z,97225.09
2023-03-26T01:32:58.388Z,97226.77
2023-03-26T01:35:38.550Z,97225.44
2023-03-26T01:38:23.009Z,97230.59
2023-03-26T01:40:55.405Z,97233.65
2023-03-26T01:43:45.378Z,97236.20
2023-03-26T01:46:14.180Z,97233.49
2023-03-26T01:48:44.058Z,97228.79
2023-03-26T01:51:12.983Z,97222.52
2023-03-26T01:53:45.517Z,97215.05
2023-03-26T01:56:19.907Z,97226.52
2023-03-26T01:59:23.151Z,97227.68
2023-03-26T02:01:55.001Z,97245.15
2023-03-26T02:04:27.166Z,97238.77
2023-03-26T02:07:10.699Z,97233.77
2023-03-26T02:09:49.978Z,97238.11
2023-03-26T02:12:18.052Z,97238.10
2023-03-26T02:14:47.838Z,97249.70
2023-03-26T02:17:16.811Z,97253.02
2023-03-26T02:19:45.836Z,97259.02
2023-03-26T02:22:16.375Z,97268.50
2023-03-26T02:24:48.351Z,97266.50
2023-03-26T02:27:18.486Z,97275.49
2023-03-26T02:29:47.866Z,97277.23
2023-03-26T02:32:19.396Z,97288.36
2023-03-26T02:34:47.398Z,97294.70
2023-03-26T02:37:19.144Z,97298.48
2023-03-26T02:39:47.820Z,97301.84
2023-03-26T02:42:31.893Z,97301.88
2023-03-26T02:44:59.962Z,97306.63
2023-03-26T02:47:33.986Z,97318.39
2023-03-26T02:50:20.591Z,97319.80
2023-03-26T02:53:09.230Z,97317.85
2023-03-26T02:55:39.322Z,97321.95
2023-03-26T02:58:07.980Z,97318.52
2023-03-26T03:00:47.339Z,97326.88
2023-03-26T03:03:37.892Z,97333.29
2023-03-26T03:06:06.302Z,97341.23
2023-03-26T03:08:48.396Z,97353.23
2023-03-26T03:11:35.641Z,97351.91
2023-03-26T03:14:03.941Z,97356.66
2023-03-26T03:16:35.585Z,97360.09
2023-03-26T03:19:07.210Z,97365.49
2023-03-26T03:21:38.235Z,97380.48
2023-03-26T03:24:07.355Z,97373.56
2023-03-26T03:26:38.431Z,97383.05
2023-03-26T03:29:27.132Z,97389.34
2023-03-26T03:31:56.206Z,97400.03
2023-03-26T03:34:38.709Z,97410.25
2023-03-26T03:37:07.288Z,97418.21
2023-03-26T03:39:45.941Z,97420.95
2023-03-26T03:42:19.478Z,97421.90
2023-03-26T03:44:47.796Z,97431.05
2023-03-26T03:50:45.855Z,97429.90
2023-03-26T03:53:40.738Z,97428.58
2023-03-26T03:56:29.158Z,97434.67
2023-03-26T03:59:17.699Z,97433.11
2023-03-26T04:01:50.879Z,97439.48
2023-03-26T04:04:26.690Z,97438.77
2023-03-26T04:07:02.775Z,97445.52
2023-03-26T04:09:36.476Z,97438.55
2023-03-26T04:12:15.569Z,97445.48
2023-03-26T04:14:50.955Z,97448.11
2023-03-26T04:17:25.017Z,97448.88
2023-03-26T04:19:57.144Z,97447.92
2023-03-26T04:22:34.776Z,97457.52
2023-03-26T04:25:10.868Z,97456.09
2023-03-26T04:27:47.987Z,97455.52
2023-03-26T04:30:35.080Z,97456.70
2023-03-26T04:33:09.931Z,97464.00
2023-03-26T04:35:41.823Z,97477.03
2023-03-26T04:38:16.734Z,97475.95
2023-03-26T04:40:47.744Z,97484.28
2023-03-26T04:43:30.437Z,97479.48
2023-03-26T04:46:27.993Z,97474.41
2023-03-26T04:49:16.184Z,97481.80
2023-03-26T04:51:46.747Z,97482.73
2023-03-26T04:54:33.195Z,97485.30
2023-03-26T04:57:09.394Z,97488.15
2023-03-26T05:00:00.853Z,97496.75
2023-03-26T05:02:37.772Z,97497.88
2023-03-26T05:05:06.212Z,97497.58
2023-03-26T05:07:36.309Z,97494.55
2023-03-26T05:10:04.989Z,97497.63
2023-03-26T05:12:39.452Z,97495.56
2023-03-26T05:15:17.716Z,97494.92
2023-03-26T05:17:52.062Z,97495.02
2023-03-26T05:20:40.473Z,97500.95
2023-03-26T05:23:14.064Z,97506.82
2023-03-26T05:25:47.200Z,97517.85
2023-03-26T05:28:24.418Z,97522.94
2023-03-26T05:31:01.148Z,97529.80
2023-03-26T05:33:30.733Z,97534.82
2023-03-26T05:36:09.361Z,97537.43
2023-03-26T05:38:37.856Z,97528.06
2023-03-26T05:41:08.021Z,97531.16
2023-03-26T05:43:39.730Z,97537.67
2023-03-26T05:46:14.021Z,97543.02
2023-03-26T05:48:44.194Z,97544.40
2023-03-26T05:51:15.510Z,97544.84
2023-03-26T05:53:57.077Z,97541.38
2023-03-26T05:56:58.014Z,97542.33
2023-03-26T05:59:45.242Z,97542.42
2023-03-26T06:02:50.828Z,97537.88
2023-03-26T06:06:00.672Z,97543.10
2023-03-26T06:08:39.454Z,97545.31
2023-03-26T06:11:08.293Z,97540.95
2023-03-26T06:13:42.777Z,97538.22
2023-03-26T06:16:21.061Z,97536.61
2023-03-26T06:18:59.980Z,97535.41
2023-03-26T06:21:51.219Z,97537.52
2023-03-26T06:24:23.308Z,97538.58
2023-03-26T06:27:04.425Z,97535.66
2023-03-26T06:30:04.141Z,97538.64
2023-03-26T06:32:51.610Z,97538.99
2023-03-26T06:35:24.808Z,97542.20
2023-03-26T06:37:53.461Z,97541.60
2023-03-26T06:40:21.961Z,97537.92
2023-03-26T06:43:10.960Z,97539.34
2023-03-26T06:45:57.701Z,97536.48
2023-03-26T06:48:39.273Z,97533.20
2023-03-26T06:51:30.245Z,97536.48
2023-03-26T06:54:17.461Z,97532.79
2023-03-26T06:56:51.684Z,97535.46
2023-03-26T06:59:28.147Z,97536.88
2023-03-26T07:02:14.808Z,97532.48
2023-03-26T07:05:18.185Z,97531.43
2023-03-26T07:08:05.904Z,97532.97
2023-03-26T07:10:59.870Z,97532.36
2023-03-26T07:13:59.619Z,97536.92
2023-03-26T07:17:06.316Z,97531.99
2023-03-26T07:19:47.711Z,97537.23
2023-03-26T07:22:23.351Z,97542.16
2023-03-26T07:25:10.907Z,97541.52
2023-03-26T07:28:02.997Z,97548.98
2023-03-26T07:31:24.922Z,97553.31
2023-03-26T07:34:29.277Z,97558.24
2023-03-26T07:37:35.973Z,97558.70
2023-03-26T07:41:01.707Z,97558.49
2023-03-26T07:44:02.381Z,97563.13
2023-03-26T07:46:48.122Z,97560.05
2023-03-26T07:49:35.497Z,97564.45
2023-03-26T07:52:20.969Z,97565.80
2023-03-26T07:55:08.603Z,97562.33
2023-03-26T07:58:11.779Z,97570.25
2023-03-26T08:01:40.501Z,97567.21
2023-03-26T08:04:42.074Z,97568.63
2023-03-26T08:07:39.679Z,97563.30
2023-03-26T08:10:26.213Z,97562.78
2023-03-26T08:13:14.414Z,97566.13
2023-03-26T08:16:05.845Z,97575.33
2023-03-26T08:18:44.826Z,97569.22
2023-03-26T08:21:39.712Z,97574.84
2023-03-26T08:24:20.242Z,97573.61
2023-03-26T08:27:08.825Z,97576.00
2023-03-26T08:29:41.476Z,97576.21
2023-03-26T08:32:10.869Z,97566.86
2023-03-26T08:34:39.026Z,97567.42
2023-03-26T08:37:07.831Z,97566.43
2023-03-26T08:39:38.911Z,97565.58
2023-03-26T08:42:26.930Z,97566.16
2023-03-26T08:45:16.755Z,97566.33
2023-03-26T08:48:11.012Z,97566.58
2023-03-26T08:51:10.876Z,97564.27
2023-03-26T08:54:20.792Z,97563.98
2023-03-26T08:57:37.319Z,97565.45
2023-03-26T09:00:17.125Z,97563.54
2023-03-26T09:03:17.486Z,97565.79
2023-03-26T09:05:51.903Z,97565.04
2023-03-26T09:08:22.844Z,97570.89
2023-03-26T09:11:04.526Z,97569.73
2023-03-26T09:13:44.689Z,97566.58
2023-03-26T09:16:44.182Z,97571.97
2023-03-26T09:19:31.048Z,97570.02
2023-03-26T09:22:23.799Z,97573.59
2023-03-26T09:25:02.570Z,97572.98
2023-03-26T09:27:47.332Z,97568.91
2023-03-26T09:30:44.672Z,97566.42
2023-03-26T09:33:26.198Z,97568.11
2023-03-26T09:36:03.617Z,97567.00
2023-03-26T09:38:54.049Z,97568.66
2023-03-26T09:41:40.723Z,97565.60
2023-03-26T09:44:20.859Z,97566.80
2023-03-26T09:47:07.030Z,97563.88
2023-03-26T09:49:48.610Z,97568.63
2023-03-26T09:52:20.610Z,97571.76
2023-03-26T09:54:57.652Z,97572.71
2023-03-26T09:57:49.435Z,97561.41
2023-03-26T10:00:23.299Z,97572.38
2023-03-26T10:03:33.650Z,97574.80
2023-03-26T10:06:48.763Z,97573.48
2023-03-26T10:09:40.943Z,97573.30
2023-03-26T10:12:42.318Z,97572.60
2023-03-26T10:15:32.842Z,97568.50
2023-03-26T10:18:27.784Z,97567.20
2023-03-26T10:21:25.328Z,97571.20
2023-03-26T10:24:15.270Z,97573.23
2023-03-26T10:27:10.782Z,97577.37
2023-03-26T10:30:07.823Z,97574.46
2023-03-26T10:32:52.319Z,97582.66
2023-03-26T10:35:31.495Z,97575.72
2023-03-26T10:38:31.095Z,97581.05
2023-03-26T10:41:17.086Z,97583.48
2023-03-26T10:43:54.839Z,97587.44
2023-03-26T10:46:36.058Z,97590.23
2023-03-26T10:51:01.457Z,97590.67
2023-03-26T10:53:56.306Z,97589.45
2023-03-26T10:56:29.219Z,97584.83
2023-03-26T10:58:56.269Z,97581.90
2023-03-26T11:01:30.935Z,97575.65
2023-03-26T11:04:01.068Z,97573.88
2023-03-26T11:06:43.795Z,97570.69
2023-03-26T11:09:11.753Z,97564.13
2023-03-26T11:11:44.868Z,97562.79
2023-03-26T11:14:35.403Z,97563.62
2023-03-26T11:17:40.963Z,97564.25
2023-03-26T11:20:16.619Z,97560.58
2023-03-26T11:22:55.336Z,97554.91
2023-03-26T11:25:33.872Z,97550.27
2023-03-26T11:28:13.989Z,97548.23
2023-03-26T11:30:46.815Z,97552.97
2023-03-26T11:33:22.856Z,97554.55
2023-03-26T11:35:50.847Z,97555.56
2023-03-26T11:38:44.374Z,97552.02
2023-03-26T11:41:25.531Z,97547.65
2023-03-26T11:44:13.134Z,97548.63
2023-03-26T11:46:43.267Z,97549.36
2023-03-26T11:49:12.091Z,97547.05
2023-03-26T11:51:39.580Z,97547.00
2023-03-26T11:54:07.289Z,97547.12
2023-03-26T11:56:42.028Z,97543.81
2023-03-26T12:00:03.652Z,97540.25
2023-03-26T12:02:56.989Z,97539.66
2023-03-26T12:05:30.811Z,97538.44
2023-03-26T12:07:59.193Z,97538.00
2023-03-26T12:10:32.599Z,97538.48
2023-03-26T12:13:24.538Z,97536.40
2023-03-26T12:15:51.140Z,97533.42
2023-03-26T12:18:25.393Z,97532.21
2023-03-26T12:21:04.913Z,97528.16
2023-03-26T12:24:04.649Z,97523.39
2023-03-26T12:26:44.228Z,97525.88
2023-03-26T12:29:12.644Z,97523.05
2023-03-26T12:31:54.257Z,97524.39
2023-03-26T12:34:22.665Z,97527.48
2023-03-26T12:36:54.758Z,97526.52
2023-03-26T12:40:06.516Z,97525.80
2023-03-26T12:42:52.740Z,97522.09
2023-03-26T12:45:12.453Z,97518.20
2023-03-26T12:48:01.145Z,97517.46
2023-03-26T12:50:36.344Z,97508.48
2023-03-26T12:53:31.405Z,97505.04
2023-03-26T12:56:04.004Z,97503.64
2023-03-26T12:58:40.468Z,97503.81
2023-03-26T13:01:47.048Z,97505.66
2023-03-26T13:04:45.110Z,97501.29
2023-03-26T13:07:54.057Z,97499.69
2023-03-26T13:10:42.492Z,97497.25
2023-03-26T13:13:45.923Z,97499.89
2023-03-26T13:16:18.525Z,97499.67
2023-03-26T13:18:55.399Z,97500.36
2023-03-26T13:21:40.927Z,97495.98
2023-03-26T13:24:07.711Z,97499.04
2023-03-26T13:26:56.868Z,97502.85
2023-03-26T13:29:46.123Z,97499.69
2023-03-26T13:32:44.190Z,97498.09
2023-03-26T13:35:26.155Z,97491.41
2023-03-26T13:38:34.507Z,97493.58
2023-03-26T13:41:06.295Z,97493.01
2023-03-26T13:43:55.165Z,97494.49
2023-03-26T13:46:42.507Z,97498.73
2023-03-26T13:49:26.874Z,97500.36
2023-03-26T13:52:05.536Z,97500.58
2023-03-26T13:54:49.635Z,97498.29
2023-03-26T13:57:28.859Z,97496.26
2023-03-26T14:00:12.045Z,97499.33
2023-03-26T14:02:43.579Z,97497.02
2023-03-26T14:05:22.189Z,97496.16
2023-03-26T14:07:51.839Z,97492.02
2023-03-26T14:10:20.912Z,97495.36
2023-03-26T14:12:55.218Z,97495.23
2023-03-26T14:15:26.747Z,97489.94
2023-03-26T14:18:31.069Z,97495.48
2023-03-26T14:21:25.924Z,97501.52
2023-03-26T14:24:18.801Z,97497.91
2023-03-26T14:27:02.820Z,97500.95
2023-03-26T14:29:57.819Z,97499.66
2023-03-26T14:32:44.217Z,97501.67
2023-03-26T14:35:10.781Z,97500.81
2023-03-26T14:37:54.810Z,97510.48
2023-03-26T14:41:00.142Z,97518.97
2023-03-26T14:43:49.179Z,97520.16
2023-03-26T14:46:19.858Z,97516.13
2023-03-26T14:49:08.275Z,97516.38
2023-03-26T14:51:45.967Z,97514.96
2023-03-26T14:54:34.790Z,97516.37
2023-03-26T14:57:23.494Z,97514.40
2023-03-26T15:00:14.936Z,97507.33
2023-03-26T15:03:07.414Z,97501.13
2023-03-26T15:06:11.802Z,97504.41
2023-03-26T15:09:16.933Z,97500.20
2023-03-26T15:12:16.264Z,97500.98
2023-03-26T15:15:00.524Z,97499.94
2023-03-26T15:17:33.811Z,97501.96
2023-03-26T15:20:32.865Z,97501.48
2023-03-26T15:23:08.868Z,97501.93
2023-03-26T15:25:48.659Z,97510.89
2023-03-26T15:28:54.325Z,97507.38
2023-03-26T15:31:42.164Z,97504.94
2023-03-26T15:34:27.566Z,97508.11
2023-03-26T15:37:10.072Z,97508.41
2023-03-26T15:39:59.475Z,97508.35
2023-03-26T15:42:44.915Z,97510.21
2023-03-26T15:45:44.597Z,97511.01
2023-03-26T15:48:12.124Z,97509.89
2023-03-26T15:50:42.918Z,97513.05
2023-03-26T15:53:54.242Z,97514.20
2023-03-26T15:56:33.663Z,97515.05
2023-03-26T15:59:31.022Z,97517.30
2023-03-26T16:02:25.887Z,97520.36
2023-03-26T16:04:56.953Z,97525.35
2023-03-26T16:07:28.325Z,97530.55
2023-03-26T16:10:21.277Z,97528.41
2023-03-26T16:13:13.064Z,97532.91
2023-03-26T16:15:58.203Z,97544.70
2023-03-26T16:18:30.818Z,97546.42
2023-03-26T16:21:31.466Z,97551.09
2023-03-26T16:24:02.488Z,97550.05
2023-03-26T16:26:48.033Z,97553.27
2023-03-26T16:29:25.015Z,97555.79
2023-03-26T16:32:06.839Z,97558.03
2023-03-26T16:34:52.227Z,97560.92
2023-03-26T16:37:39.144Z,97563.35
2023-03-26T16:40:21.844Z,97566.24
2023-03-26T16:43:26.061Z,97566.71
2023-03-26T16:46:05.131Z,97568.07
2023-03-26T16:48:36.385Z,97578.65
2023-03-26T16:51:30.823Z,97581.42
2023-03-26T16:54:23.164Z,97583.91
2023-03-26T16:56:53.060Z,97588.69
2023-03-26T16:59:45.759Z,97591.95
2023-03-26T17:02:40.855Z,97597.56
2023-03-26T17:05:21.143Z,97605.98
2023-03-26T17:08:00.757Z,97592.90
2023-03-26T17:10:37.146Z,97596.20
2023-03-26T17:13:25.286Z,97591.74
2023-03-26T17:16:15.585Z,97590.09
2023-03-26T17:18:50.391Z,97589.95
2023-03-26T17:22:02.025Z,97585.78
2023-03-26T17:24:40.046Z,97585.61
2023-03-26T17:27:49.487Z,97588.08
2023-03-26T17:30:51.071Z,97589.67
2023-03-26T17:33:26.235Z,97587.51
2023-03-26T17:36:11.452Z,97588.30
2023-03-26T17:38:40.645Z,97590.92
2023-03-26T17:41:17.860Z,97597.23
2023-03-26T17:43:44.890Z,97597.55
2023-03-26T17:46:31.193Z,97595.98
2023-03-26T17:48:59.372Z,97602.33
2023-03-26T17:51:39.756Z,97608.05
2023-03-26T17:54:17.696Z,97608.15
2023-03-26T17:56:44.455Z,97606.13
2023-03-26T17:59:17.825Z,97609.23
2023-03-26T18:01:47.646Z,97608.64
2023-03-26T18:04:19.016Z,97608.64
2023-03-26T18:07:01.060Z,97611.05
2023-03-26T18:09:41.489Z,97614.88
2023-03-26T18:12:27.128Z,97611.75
2023-03-26T18:15:13.582Z,97611.30
2023-03-26T18:17:45.529Z,97608.48
2023-03-26T18:20:41.901Z,97611.20
2023-03-26T18:23:10.431Z,97608.55
2023-03-26T18:25:37.692Z,97614.95
2023-03-26T18:28:04.357Z,97613.15
2023-03-26T18:30:30.997Z,97609.75
2023-03-26T18:33:02.999Z,97613.61
2023-03-26T18:35:44.412Z,97613.58
2023-03-26T18:38:18.782Z,97614.66
2023-03-26T18:41:02.993Z,97617.67
2023-03-26T18:43:34.788Z,97618.27
2023-03-26T18:46:03.026Z,97616.58
2023-03-26T18:48:30.176Z,97614.88
2023-03-26T18:51:05.238Z,97617.36
2023-03-26T18:53:39.153Z,97611.13
2023-03-26T18:56:30.167Z,97612.33
2023-03-26T18:58:59.399Z,97611.21
2023-03-26T19:01:30.764Z,97609.66
2023-03-26T19:04:04.327Z,97612.27
2023-03-26T19:06:35.254Z,97615.11
2023-03-26T19:09:07.769Z,97619.45
2023-03-26T19:11:38.090Z,97617.11
2023-03-26T19:14:07.344Z,97612.96
2023-03-26T19:16:35.999Z,97607.07
2023-03-26T19:19:05.750Z,97609.33
2023-03-26T19:21:33.495Z,97610.17
2023-03-26T19:24:06.391Z,97609.91
2023-03-26T19:26:33.674Z,97613.06
2023-03-26T19:29:00.443Z,97609.24
2023-03-26T19:31:38.327Z,97610.95
2023-03-26T19:34:19.323Z,97608.83
2023-03-26T19:36:51.861Z,97607.49
2023-03-26T19:39:34.649Z,97610.33
2023-03-26T19:42:04.647Z,97607.33
2023-03-26T19:44:32.084Z,97604.60
2023-03-26T19:47:04.724Z,97607.48
2023-03-26T19:49:41.642Z,97602.40
2023-03-26T19:52:24.667Z,97603.52
2023-03-26T19:55:18.459Z,97601.33
2023-03-26T19:57:45.032Z,97598.55
2023-03-26T20:00:13.496Z,97598.36
2023-03-26T20:02:45.899Z,97599.29
2023-03-26T20:05:17.928Z,97595.04
2023-03-26T20:07:49.700Z,97594.66
2023-03-26T20:10:16.453Z,97595.83
2023-03-26T20:12:43.038Z,97599.51
2023-03-26T20:15:19.585Z,97596.74
2023-03-26T20:18:04.783Z,97595.88
2023-03-26T20:20:33.581Z,97595.29
2023-03-26T20:23:00.947Z,97594.92
2023-03-26T20:25:36.846Z,97599.64
2023-03-26T20:28:05.261Z,97596.71
2023-03-26T20:30:37.892Z,97601.03
2023-03-26T20:33:13.802Z,97601.03
2023-03-26T20:35:42.497Z,97600.85
2023-03-26T20:38:09.985Z,97602.75
2023-03-26T20:40:37.733Z,97603.14
2023-03-26T20:43:09.261Z,97601.40
2023-03-26T20:45:36.523Z,97597.02
2023-03-26T20:48:04.880Z,97597.30
2023-03-26T20:50:35.706Z,97603.65
2023-03-26T20:53:02.657Z,97606.66
2023-03-26T20:55:29.365Z,97599.13
2023-03-26T20:57:55.875Z,97607.91
2023-03-26T21:00:25.482Z,97604.35
2023-03-26T21:02:53.938Z,97609.58
2023-03-26T21:05:26.119Z,97606.00
2023-03-26T21:07:56.627Z,97607.41
2023-03-26T21:10:28.944Z,97606.48
2023-03-26T21:12:57.486Z,97608.92
2023-03-26T21:15:28.996Z,97604.15
2023-03-26T21:17:56.191Z,97606.89
2023-03-26T21:20:24.679Z,97606.08
2023-03-26T21:23:31.470Z,97608.30
2023-03-26T21:26:07.233Z,97608.73
2023-03-26T21:28:42.381Z,97611.88
2023-03-26T21:31:23.932Z,97609.89
2023-03-26T21:33:51.746Z,97611.19
2023-03-26T21:36:19.152Z,97612.81
2023-03-26T21:38:46.643Z,97608.86
2023-03-26T21:41:24.665Z,97602.31
2023-03-26T21:43:51.731Z,97605.91
2023-03-26T21:46:18.628Z,97604.73
2023-03-26T21:48:47.335Z,97609.62
2023-03-26T21:51:14.658Z,97602.05
2023-03-26T21:53:42.186Z,97606.48
2023-03-26T21:56:21.180Z,97597.54
2023-03-26T21:58:55.370Z,97598.18
2023-03-26T22:01:46.218Z,97595.60
2023-03-26T22:04:53.610Z,97595.64
2023-03-26T22:07:35.081Z,97600.29
2023-03-26T22:10:01.620Z,97603.81
2023-03-26T22:12:28.524Z,97607.34
2023-03-26T22:14:55.303Z,97608.86
2023-03-26T22:17:22.463Z,97608.14
2023-03-26T22:19:49.516Z,97603.41
2023-03-26T22:22:16.282Z,97604.72
2023-03-26T22:24:43.365Z,97596.98
2023-03-26T22:27:16.929Z,97596.56
2023-03-26T22:29:43.474Z,97592.50
2023-03-26T22:32:10.504Z,97594.70
2023-03-26T22:34:38.089Z,97595.25
2023-03-26T22:37:05.167Z,97592.39
2023-03-26T22:39:42.989Z,97593.16
2023-03-26T22:42:09.783Z,97594.13
2023-03-26T22:44:36.610Z,97589.98
2023-03-26T22:47:04.233Z,97592.81
2023-03-26T22:49:31.765Z,97591.36
2023-03-26T22:52:06.611Z,97591.73
2023-03-26T22:54:35.881Z,97586.66
2023-03-26T22:57:02.975Z,97587.77
2023-03-26T22:59:30.503Z,97586.11
2023-03-26T23:01:57.207Z,97581.31
2023-03-26T23:04:31.237Z,97582.67
2023-03-26T23:08:03.603Z,97578.10
2023-03-26T23:10:31.529Z,97581.36
2023-03-26T23:13:00.828Z,97575.98
2023-03-26T23:15:30.581Z,97572.74
2023-03-26T23:17:59.479Z,97573.52
2023-03-26T23:20:29.291Z,97574.23
2023-03-26T23:22:57.540Z,97573.39
2023-03-26T23:25:32.961Z,97573.09
2023-03-26T23:28:02.025Z,97571.95
2023-03-26T23:30:30.443Z,97571.92
2023-03-26T23:32:58.849Z,97576.67
2023-03-26T23:35:26.848Z,97574.48
2023-03-26T23:37:55.996Z,97578.08
2023-03-26T23:40:24.569Z,97576.29
2023-03-26T23:42:52.812Z,97578.70
2023-03-26T23:45:22.724Z,97576.38
2023-03-26T23:47:51.410Z,97572.48
2023-03-26T23:50:20.887Z,97572.89
2023-03-26T23:52:50.369Z,97575.48
2023-03-26T23:55:18.283Z,97577.89
2023-03-26T23:57:47.523Z,97578.56
